^^
Your Local Weather - Clay, NY Station Historical Data
Daily Summary for May 25, 2017 Units:  English    Metric   Both
« Previous Day
Next Day »
Daily Weekly Monthly Yearly Custom
  High: Low: Average:
Temperature: 62.4 °F 54.1 °F 57.2 °F
Dew Point: 54.9 °F 48.8 °F 51.7 °F
Humidity: 91% 65% 82%
Wind Speed: 6.0mph 0.0mph 2.7mph
Wind Gust: 12.0mph - -
Wind- - East
Pressure: 29.68 in 29.48 in -
Precipitation: 0.32 in    
Historical Graphs
 
 
Tabular Data for May 25, 2017
Time Temperature Dew Point Pressure Wind Wind Speed Wind Gust Humidity Rainfall Rate (Hourly) solar
00:02 62.4 °F 50.5 °F 29.68 in South 1.0 mph 1.0 mph 65% 0.00 in 0 W/m2
00:08 62.4 °F 51.7 °F 29.67 in South 1.0 mph 2.0 mph 68% 0.00 in 0 W/m2
00:14 62.0 °F 51.7 °F 29.67 in Calm   1.0 mph 69% 0.00 in 0 W/m2
00:20 61.6 °F 52.1 °F 29.67 in Calm     71% 0.00 in 0 W/m2
00:26 61.2 °F 51.7 °F 29.67 in Calm   1.0 mph 71% 0.00 in 0 W/m2
00:32 60.8 °F 52.5 °F 29.67 in Calm     74% 0.00 in 0 W/m2
00:38 60.4 °F 52.4 °F 29.67 in Calm     75% 0.00 in 0 W/m2
00:44 60.0 °F 52.4 °F 29.67 in Calm     76% 0.00 in 0 W/m2
00:50 59.9 °F 52.0 °F 29.67 in Calm     75% 0.00 in 0 W/m2
00:56 60.0 °F 51.7 °F 29.66 in Calm   1.0 mph 74% 0.00 in 0 W/m2
01:02 60.4 °F 51.0 °F 29.67 in Calm   1.0 mph 71% 0.00 in 0 W/m2
01:08 60.8 °F 50.6 °F 29.67 in SSE 1.0 mph 1.0 mph 69% 0.00 in 0 W/m2
01:14 60.9 °F 50.7 °F 29.67 in SSE 1.0 mph 1.0 mph 69% 0.00 in 0 W/m2
01:20 60.8 °F 51.0 °F 29.67 in Calm     70% 0.00 in 0 W/m2
01:26 60.4 °F 51.3 °F 29.66 in Calm   2.0 mph 72% 0.00 in 0 W/m2
01:32 60.6 °F 51.5 °F 29.66 in ESE 1.0 mph 2.0 mph 72% 0.00 in 0 W/m2
01:38 60.0 °F 52.4 °F 29.66 in ESE 1.0 mph 2.0 mph 76% 0.00 in 0 W/m2
01:44 59.6 °F 50.9 °F 29.66 in Calm   3.0 mph 73% 0.00 in 0 W/m2
01:50 59.7 °F 50.3 °F 29.65 in ESE 1.0 mph 1.0 mph 71% 0.00 in 0 W/m2
01:56 59.7 °F 50.3 °F 29.65 in ESE 1.0 mph 2.0 mph 71% 0.00 in 0 W/m2
02:02 59.6 °F 50.6 °F 29.65 in Calm   1.0 mph 72% 0.00 in 0 W/m2
02:08 59.6 °F 50.6 °F 29.65 in ESE 1.0 mph 2.0 mph 72% 0.00 in 0 W/m2
02:14 59.5 °F 50.5 °F 29.65 in ESE 1.0 mph 3.0 mph 72% 0.00 in 0 W/m2
02:20 59.6 °F 50.6 °F 29.65 in East 1.0 mph 1.0 mph 72% 0.00 in 0 W/m2
02:26 59.5 °F 51.2 °F 29.65 in Calm   1.0 mph 74% 0.00 in 0 W/m2
02:32 59.0 °F 51.4 °F 29.65 in Calm     76% 0.00 in 0 W/m2
02:38 58.6 °F 51.4 °F 29.65 in Calm     77% 0.00 in 0 W/m2
02:46 58.3 °F 50.8 °F 29.65 in Calm     76% 0.00 in 0 W/m2
02:52 58.5 °F 50.2 °F 29.65 in East 1.0 mph 2.0 mph 74% 0.00 in 0 W/m2
02:58 58.7 °F 50.1 °F 29.65 in ESE 1.0 mph 2.0 mph 73% 0.00 in 0 W/m2
03:04 58.8 °F 50.2 °F 29.65 in Calm   1.0 mph 73% 0.00 in 0 W/m2
03:10 58.9 °F 50.3 °F 29.64 in East 1.0 mph 3.0 mph 73% 0.00 in 0 W/m2
03:16 59.1 °F 50.1 °F 29.64 in East 1.0 mph 3.0 mph 72% 0.00 in 0 W/m2
03:22 59.3 °F 50.3 °F 29.64 in ENE 1.0 mph 2.0 mph 72% 0.00 in 0 W/m2
03:28 59.2 °F 50.2 °F 29.64 in NE 1.0 mph 2.0 mph 72% 0.00 in 0 W/m2
03:34 59.3 °F 49.9 °F 29.64 in SE 1.0 mph 1.0 mph 71% 0.00 in 0 W/m2
03:40 59.4 °F 50.0 °F 29.64 in ESE 1.0 mph 1.0 mph 71% 0.00 in 0 W/m2
03:46 59.4 °F 50.0 °F 29.64 in East 1.0 mph 2.0 mph 71% 0.00 in 0 W/m2
03:52 59.5 °F 50.1 °F 29.64 in East 1.0 mph 1.0 mph 71% 0.00 in 0 W/m2
03:58 59.6 °F 50.2 °F 29.64 in ENE 2.0 mph 4.0 mph 71% 0.00 in 0 W/m2
04:04 59.6 °F 50.2 °F 29.64 in East 2.0 mph 3.0 mph 71% 0.00 in 0 W/m2
04:10 59.5 °F 49.7 °F 29.64 in East 1.0 mph 1.0 mph 70% 0.00 in 0 W/m2
04:16 59.5 °F 50.1 °F 29.64 in ENE 1.0 mph 5.0 mph 71% 0.00 in 0 W/m2
04:22 59.4 °F 49.6 °F 29.64 in NE 2.0 mph 2.0 mph 70% 0.00 in 0 W/m2
04:28 59.4 °F 49.6 °F 29.64 in ENE 1.0 mph 2.0 mph 70% 0.00 in 0 W/m2
04:34 59.5 °F 49.7 °F 29.64 in ENE 2.0 mph 4.0 mph 70% 0.00 in 0 W/m2
04:40 59.5 °F 49.7 °F 29.64 in ESE 2.0 mph 2.0 mph 70% 0.00 in 0 W/m2
04:46 59.4 °F 49.2 °F 29.64 in NE 2.0 mph 4.0 mph 69% 0.00 in 0 W/m2
04:52 59.3 °F 49.5 °F 29.64 in ENE 2.0 mph 2.0 mph 70% 0.00 in 0 W/m2
04:58 59.2 °F 49.4 °F 29.64 in East 2.0 mph 2.0 mph 70% 0.00 in 0 W/m2
05:04 59.2 °F 49.4 °F 29.64 in ESE 1.0 mph 1.0 mph 70% 0.00 in 0 W/m2
05:10 59.2 °F 49.4 °F 29.64 in ENE 2.0 mph 2.0 mph 70% 0.00 in 0 W/m2
05:16 59.1 °F 49.7 °F 29.64 in East 2.0 mph 5.0 mph 71% 0.00 in 0 W/m2
05:22 59.2 °F 49.4 °F 29.64 in ENE 3.0 mph 3.0 mph 70% 0.00 in 0 W/m2
05:28 59.2 °F 49.4 °F 29.64 in ENE 3.0 mph 5.0 mph 70% 0.00 in 0 W/m2
05:34 59.2 °F 49.4 °F 29.64 in East 3.0 mph 5.0 mph 70% 0.00 in 0 W/m2
05:40 58.9 °F 49.9 °F 29.64 in East 3.0 mph 3.0 mph 72% 0.00 in 0 W/m2
05:46 58.7 °F 50.1 °F 29.64 in East 2.0 mph 3.0 mph 73% 0.00 in 0 W/m2
05:52 58.4 °F 50.1 °F 29.64 in East 1.0 mph 2.0 mph 74% 0.00 in 0 W/m2
05:58 58.1 °F 50.6 °F 29.64 in East 1.0 mph 2.0 mph 76% 0.00 in 5 W/m2
06:04 57.8 °F 50.6 °F 29.64 in ENE 1.0 mph 3.0 mph 77% 0.00 in 7 W/m2
06:10 57.5 °F 50.7 °F 29.64 in ENE 1.0 mph 1.0 mph 78% 0.00 in 7 W/m2
06:16 57.4 °F 50.9 °F 29.64 in East 1.0 mph 1.0 mph 79% 0.00 in 11 W/m2
06:22 57.5 °F 50.7 °F 29.64 in ENE 2.0 mph 2.0 mph 78% 0.00 in 14 W/m2
06:28 57.8 °F 50.6 °F 29.63 in ENE 2.0 mph 3.0 mph 77% 0.00 in 16 W/m2
06:34 57.8 °F 50.3 °F 29.63 in ENE 2.0 mph 3.0 mph 76% 0.00 in 18 W/m2
06:40 58.0 °F 50.5 °F 29.62 in East 2.0 mph 2.0 mph 76% 0.00 in 19 W/m2
06:46 58.0 °F 50.5 °F 29.63 in ENE 2.0 mph 4.0 mph 76% 0.00 in 19 W/m2
06:52 58.1 °F 50.6 °F 29.63 in ENE 2.0 mph 2.0 mph 76% 0.00 in 25 W/m2
06:58 58.0 °F 50.5 °F 29.62 in SE 2.0 mph 2.0 mph 76% 0.00 in 30 W/m2
07:04 58.0 °F 50.5 °F 29.62 in NNE 2.0 mph 5.0 mph 76% 0.00 in 33 W/m2
07:10 58.2 °F 50.0 °F 29.62 in NE 3.0 mph 3.0 mph 74% 0.00 in 39 W/m2
07:16 58.4 °F 50.1 °F 29.61 in East 3.0 mph 5.0 mph 74% 0.00 in 44 W/m2
07:22 58.6 °F 50.0 °F 29.62 in East 4.0 mph 11.0 mph 73% 0.00 in 42 W/m2
07:28 58.7 °F 49.7 °F 29.61 in NE 4.0 mph 11.0 mph 72% 0.00 in 46 W/m2
07:34 58.7 °F 49.7 °F 29.61 in NNE 4.0 mph 8.0 mph 72% 0.00 in 49 W/m2
07:40 58.8 °F 49.4 °F 29.60 in NE 5.0 mph 6.0 mph 71% 0.00 in 42 W/m2
07:46 58.7 °F 49.3 °F 29.61 in NNE 4.0 mph 10.0 mph 71% 0.00 in 42 W/m2
07:52 58.6 °F 49.2 °F 29.60 in ENE 4.0 mph 7.0 mph 71% 0.00 in 42 W/m2
08:04 58.6 °F 49.2 °F 29.60 in ESE 4.0 mph 11.0 mph 71% 0.00 in 46 W/m2
08:10 58.6 °F 49.2 °F 29.60 in SE 4.0 mph 4.0 mph 71% 0.00 in 65 W/m2
08:16 58.6 °F 49.2 °F 29.60 in NNE 4.0 mph 4.0 mph 71% 0.00 in 67 W/m2
08:22 58.6 °F 48.8 °F 29.59 in ENE 4.0 mph 7.0 mph 70% 0.00 in 76 W/m2
08:28 58.6 °F 49.2 °F 29.59 in NE 5.0 mph 7.0 mph 71% 0.00 in 81 W/m2
08:34 58.5 °F 49.1 °F 29.59 in NNE 3.0 mph 11.0 mph 71% 0.00 in 79 W/m2
08:40 58.3 °F 48.9 °F 29.59 in NNE 4.0 mph 7.0 mph 71% 0.00 in 86 W/m2
08:46 58.1 °F 49.1 °F 29.59 in ENE 5.0 mph 7.0 mph 72% 0.00 in 84 W/m2
08:52 58.0 °F 49.0 °F 29.59 in ENE 5.0 mph 7.0 mph 72% 0.00 in 86 W/m2
08:58 57.8 °F 49.2 °F 29.59 in ENE 5.0 mph 12.0 mph 73% 0.00 in 111 W/m2
09:04 57.6 °F 49.4 °F 29.59 in East 6.0 mph 12.0 mph 74% 0.00 in 127 W/m2
09:10 57.5 °F 49.3 °F 29.59 in East 6.0 mph 7.0 mph 74% 0.00 in 134 W/m2
09:16 57.3 °F 49.4 °F 29.59 in East 5.0 mph 12.0 mph 75% 0.00 in 135 W/m2
09:22 57.1 °F 49.6 °F 29.59 in ESE 5.0 mph 8.0 mph 76% 0.00 in 132 W/m2
09:28 56.8 °F 50.0 °F 29.59 in SE 4.0 mph 8.0 mph 78% 0.00 in 105 W/m2
09:34 56.4 °F 50.0 °F 29.59 in East 4.0 mph 7.0 mph 79% 0.00 in 98 W/m2
09:40 56.0 °F 50.3 °F 29.59 in NE 4.0 mph 5.0 mph 81% 0.00 in 90 W/m2
09:46 55.6 °F 50.2 °F 29.58 in East 3.0 mph 6.0 mph 82% 0.00 in 84 W/m2
09:52 55.3 °F 50.2 °F 29.58 in East 3.0 mph 7.0 mph 83% 0.00 in 86 W/m2
09:58 55.0 °F 50.3 °F 29.58 in SE 4.0 mph 7.0 mph 84% 0.00 in 83 W/m2
10:04 54.9 °F 50.2 °F 29.57 in NE 6.0 mph 6.0 mph 84% 0.00 in 84 W/m2
10:10 54.7 °F 50.3 °F 29.57 in East 5.0 mph 5.0 mph 85% 0.00 in 72 W/m2
10:16 54.6 °F 50.5 °F 29.57 in ENE 4.0 mph 5.0 mph 86% 0.00 in 69 W/m2
10:22 54.4 °F 50.3 °F 29.57 in SE 4.0 mph 7.0 mph 86% 0.05 in 74 W/m2
10:28 54.4 °F 50.3 °F 29.57 in ESE 5.0 mph 7.0 mph 86% 0.06 in 83 W/m2
10:34 54.3 °F 50.2 °F 29.57 in SSE 5.0 mph 5.0 mph 86% 0.06 in 95 W/m2
10:40 54.3 °F 50.5 °F 29.57 in ENE 5.0 mph 11.0 mph 87% 0.04 in 93 W/m2
10:46 54.3 °F 50.5 °F 29.56 in East 4.0 mph 11.0 mph 87% 0.04 in 98 W/m2
10:52 54.3 °F 50.5 °F 29.56 in East 5.0 mph 5.0 mph 87% 0.04 in 116 W/m2
10:58 54.4 °F 50.6 °F 29.56 in ESE 4.0 mph 5.0 mph 87% 0.05 in 113 W/m2
11:04 54.4 °F 50.6 °F 29.56 in ENE 4.0 mph 5.0 mph 87% 0.05 in 95 W/m2
11:10 54.4 °F 50.6 °F 29.55 in East 4.0 mph 4.0 mph 87% 0.04 in 95 W/m2
11:16 54.5 °F 50.7 °F 29.55 in ENE 4.0 mph 8.0 mph 87% 0.00 in 70 W/m2
11:22 54.5 °F 50.7 °F 29.55 in East 5.0 mph 6.0 mph 87% 0.00 in 93 W/m2
11:28 54.5 °F 50.7 °F 29.54 in East 4.0 mph 9.0 mph 87% 0.00 in 98 W/m2
11:34 54.6 °F 50.5 °F 29.55 in East 5.0 mph 10.0 mph 86% 0.00 in 86 W/m2
11:40 54.8 °F 50.7 °F 29.55 in NNE 5.0 mph 5.0 mph 86% 0.00 in 90 W/m2
11:46 54.9 °F 50.5 °F 29.55 in SE 5.0 mph 7.0 mph 85% 0.00 in 102 W/m2
11:52 54.9 °F 50.8 °F 29.56 in SSE 5.0 mph 5.0 mph 86% 0.00 in 77 W/m2
11:58 54.8 °F 50.7 °F 29.56 in NNE 3.0 mph 5.0 mph 86% 0.07 in 84 W/m2
12:04 54.8 °F 51.0 °F 29.56 in NE 2.0 mph 5.0 mph 87% 0.07 in 54 W/m2
12:10 54.6 °F 50.8 °F 29.55 in SE 3.0 mph 3.0 mph 87% 0.16 in 67 W/m2
12:16 54.6 °F 50.8 °F 29.55 in East 2.0 mph 7.0 mph 87% 0.15 in 84 W/m2
12:22 54.5 °F 51.0 °F 29.55 in NE 3.0 mph 5.0 mph 88% 0.15 in 77 W/m2
12:28 54.3 °F 50.8 °F 29.54 in East 3.0 mph 5.0 mph 88% 0.20 in 72 W/m2
12:34 54.2 °F 50.7 °F 29.54 in ESE 3.0 mph 7.0 mph 88% 0.21 in 79 W/m2
12:40 54.1 °F 50.6 °F 29.53 in East 4.0 mph 4.0 mph 88% 0.13 in 79 W/m2
12:46 54.1 °F 50.9 °F 29.53 in East 4.0 mph 5.0 mph 89% 0.10 in 81 W/m2
12:52 54.1 °F 50.9 °F 29.53 in East 4.0 mph 5.0 mph 89% 0.06 in 79 W/m2
12:58 54.1 °F 50.9 °F 29.53 in East 4.0 mph 5.0 mph 89% 0.18 in 120 W/m2
13:04 54.3 °F 51.1 °F 29.53 in SE 3.0 mph 11.0 mph 89% 0.14 in 302 W/m2
13:10 54.6 °F 51.4 °F 29.53 in ENE 4.0 mph 4.0 mph 89% 0.08 in 223 W/m2
13:16 54.8 °F 51.6 °F 29.53 in East 4.0 mph 8.0 mph 89% 0.04 in 186 W/m2
13:22 54.8 °F 51.3 °F 29.53 in SSE 5.0 mph 5.0 mph 88% 0.00 in 183 W/m2
13:28 54.9 °F 51.4 °F 29.53 in East 5.0 mph 8.0 mph 88% 0.00 in 155 W/m2
13:34 54.9 °F 51.7 °F 29.53 in ENE 4.0 mph 10.0 mph 89% 0.00 in 148 W/m2
13:40 54.8 °F 51.6 °F 29.52 in ESE 5.0 mph 5.0 mph 89% 0.10 in 181 W/m2
13:46 54.9 °F 52.0 °F 29.53 in ESE 5.0 mph 8.0 mph 90% 0.13 in 160 W/m2
13:52 54.9 °F 52.0 °F 29.52 in ESE 4.0 mph 11.0 mph 90% 0.06 in 206 W/m2
13:58 55.1 °F 52.2 °F 29.51 in ENE 4.0 mph 11.0 mph 90% 0.04 in 234 W/m2
14:04 55.3 °F 52.4 °F 29.51 in NE 4.0 mph 5.0 mph 90% 0.00 in 257 W/m2
14:10 55.4 °F 52.5 °F 29.51 in East 5.0 mph 5.0 mph 90% 0.00 in 207 W/m2
14:16 55.5 °F 52.6 °F 29.51 in East 4.0 mph 6.0 mph 90% 0.00 in 172 W/m2
14:22 55.5 °F 52.6 °F 29.51 in SSE 4.0 mph 4.0 mph 90% 0.00 in 195 W/m2
14:28 55.7 °F 52.5 °F 29.51 in ENE 4.0 mph 8.0 mph 89% 0.00 in 190 W/m2
14:34 55.7 °F 52.5 °F 29.51 in ESE 5.0 mph 7.0 mph 89% 0.00 in 158 W/m2
14:40 55.8 °F 52.6 °F 29.51 in East 4.0 mph 4.0 mph 89% 0.00 in 237 W/m2
14:46 55.9 °F 52.7 °F 29.51 in ESE 4.0 mph 5.0 mph 89% 0.00 in 250 W/m2
14:52 55.9 °F 52.7 °F 29.51 in ESE 5.0 mph 5.0 mph 89% 0.00 in 209 W/m2
14:58 55.9 °F 52.7 °F 29.51 in East 5.0 mph 5.0 mph 89% 0.00 in 123 W/m2
15:06 56.0 °F 52.8 °F 29.51 in ESE 4.0 mph 4.0 mph 89% 0.05 in 192 W/m2
15:12 56.3 °F 53.4 °F 29.50 in ENE 3.0 mph 7.0 mph 90% 0.05 in 225 W/m2
15:18 56.3 °F 53.4 °F 29.50 in East 3.0 mph 7.0 mph 90% 0.05 in 255 W/m2
15:24 56.4 °F 53.5 °F 29.50 in SSE 3.0 mph 4.0 mph 90% 0.05 in 193 W/m2
15:30 56.5 °F 53.6 °F 29.50 in SE 3.0 mph 3.0 mph 90% 0.04 in 241 W/m2
15:36 56.7 °F 53.8 °F 29.50 in ESE 4.0 mph 6.0 mph 90% 0.00 in 174 W/m2
15:42 56.7 °F 53.8 °F 29.50 in ENE 3.0 mph 3.0 mph 90% 0.00 in 165 W/m2
15:48 56.7 °F 53.8 °F 29.50 in SSE 2.0 mph 3.0 mph 90% 0.00 in 98 W/m2
15:54 56.6 °F 53.7 °F 29.50 in ESE 2.0 mph 4.0 mph 90% 0.00 in 86 W/m2
16:00 56.4 °F 53.5 °F 29.50 in East 3.0 mph 5.0 mph 90% 0.00 in 81 W/m2
16:06 56.5 °F 53.6 °F 29.50 in ENE 4.0 mph 5.0 mph 90% 0.00 in 98 W/m2
16:12 56.5 °F 53.6 °F 29.50 in ENE 3.0 mph 7.0 mph 90% 0.00 in 127 W/m2
16:18 56.5 °F 53.6 °F 29.50 in ENE 3.0 mph 7.0 mph 90% 0.00 in 155 W/m2
16:24 56.7 °F 53.8 °F 29.49 in ENE 3.0 mph 6.0 mph 90% 0.00 in 199 W/m2
16:30 56.8 °F 53.9 °F 29.48 in East 4.0 mph 6.0 mph 90% 0.00 in 262 W/m2
16:36 57.0 °F 54.4 °F 29.48 in ENE 4.0 mph 6.0 mph 91% 0.00 in 118 W/m2
16:42 56.6 °F 53.7 °F 29.48 in ESE 4.0 mph 8.0 mph 90% 0.00 in 149 W/m2
16:48 56.8 °F 53.9 °F 29.48 in East 3.0 mph 8.0 mph 90% 0.00 in 121 W/m2
16:54 56.9 °F 54.0 °F 29.48 in ESE 1.0 mph 5.0 mph 90% 0.00 in 123 W/m2
17:00 56.8 °F 53.9 °F 29.48 in SSE 2.0 mph 2.0 mph 90% 0.00 in 120 W/m2
17:06 56.7 °F 53.8 °F 29.48 in ENE 2.0 mph 5.0 mph 90% 0.00 in 125 W/m2
17:12 56.6 °F 53.7 °F 29.48 in ENE 3.0 mph 3.0 mph 90% 0.00 in 127 W/m2
17:18 56.8 °F 53.9 °F 29.48 in NE 3.0 mph 4.0 mph 90% 0.00 in 135 W/m2
17:24 56.6 °F 53.7 °F 29.48 in NNE 3.0 mph 7.0 mph 90% 0.00 in 128 W/m2
17:30 56.5 °F 53.6 °F 29.48 in NE 4.0 mph 4.0 mph 90% 0.00 in 109 W/m2
17:36 56.6 °F 53.7 °F 29.48 in East 3.0 mph 4.0 mph 90% 0.00 in 97 W/m2
17:42 56.6 °F 53.7 °F 29.48 in ENE 3.0 mph 8.0 mph 90% 0.00 in 121 W/m2
17:48 56.5 °F 53.3 °F 29.48 in East 3.0 mph 8.0 mph 89% 0.00 in 72 W/m2
17:54 56.5 °F 53.6 °F 29.48 in East 3.0 mph 7.0 mph 90% 0.00 in 69 W/m2
18:00 56.4 °F 53.5 °F 29.48 in NE 2.0 mph 2.0 mph 90% 0.00 in 81 W/m2
18:06 56.5 °F 53.6 °F 29.48 in ENE 2.0 mph 3.0 mph 90% 0.00 in 98 W/m2
18:12 56.5 °F 53.6 °F 29.48 in NE 2.0 mph 5.0 mph 90% 0.00 in 125 W/m2
18:18 56.7 °F 53.8 °F 29.48 in ENE 2.0 mph 5.0 mph 90% 0.00 in 132 W/m2
18:24 56.9 °F 54.3 °F 29.48 in ENE 2.0 mph 3.0 mph 91% 0.00 in 149 W/m2
18:30 57.1 °F 54.5 °F 29.48 in ENE 1.0 mph 4.0 mph 91% 0.00 in 139 W/m2
18:36 57.0 °F 54.4 °F 29.48 in East 2.0 mph 4.0 mph 91% 0.00 in 132 W/m2
18:42 57.1 °F 54.5 °F 29.48 in NE 2.0 mph 3.0 mph 91% 0.00 in 84 W/m2
18:48 57.1 °F 54.5 °F 29.48 in ESE 2.0 mph 4.0 mph 91% 0.00 in 60 W/m2
18:54 57.1 °F 54.5 °F 29.48 in South 1.0 mph 3.0 mph 91% 0.00 in 84 W/m2
19:00 57.3 °F 54.7 °F 29.49 in ENE 1.0 mph 3.0 mph 91% 0.00 in 109 W/m2
19:06 57.5 °F 54.9 °F 29.49 in SSE 2.0 mph 3.0 mph 91% 0.00 in 77 W/m2
19:12 57.6 °F 54.7 °F 29.50 in SE 2.0 mph 2.0 mph 90% 0.00 in 51 W/m2
19:18 57.5 °F 54.6 °F 29.50 in ESE 2.0 mph 2.0 mph 90% 0.00 in 51 W/m2
19:24 57.6 °F 54.7 °F 29.50 in SSE 2.0 mph 5.0 mph 90% 0.00 in 63 W/m2
19:30 57.6 °F 54.7 °F 29.50 in SSE 2.0 mph 2.0 mph 90% 0.00 in 70 W/m2
19:36 57.5 °F 54.3 °F 29.50 in ENE 2.0 mph 5.0 mph 89% 0.00 in 42 W/m2
19:38 57.5 °F 54.3 °F 29.50 in ESE 2.0 mph 5.0 mph 89% 0.00 in 37 W/m2
19:44 57.4 °F 54.2 °F 29.50 in SE 2.0 mph 3.0 mph 89% 0.00 in 19 W/m2
19:50 57.2 °F 54.0 °F 29.50 in East 1.0 mph 1.0 mph 89% 0.00 in 16 W/m2
19:56 57.0 °F 53.8 °F 29.49 in SE 1.0 mph 2.0 mph 89% 0.00 in 18 W/m2
20:02 56.8 °F 53.6 °F 29.50 in ENE 1.0 mph 2.0 mph 89% 0.00 in 14 W/m2
20:08 56.8 °F 53.6 °F 29.50 in SE 1.0 mph 3.0 mph 89% 0.00 in 11 W/m2
20:14 56.8 °F 53.6 °F 29.50 in ENE 1.0 mph 4.0 mph 89% 0.00 in 7 W/m2
20:20 56.9 °F 53.7 °F 29.50 in ENE 1.0 mph 1.0 mph 89% 0.00 in 0 W/m2
20:26 56.9 °F 53.7 °F 29.50 in ENE 1.0 mph 4.0 mph 89% 0.00 in 0 W/m2
20:32 56.8 °F 53.3 °F 29.49 in East 3.0 mph 3.0 mph 88% 0.00 in 0 W/m2
20:38 56.7 °F 53.2 °F 29.49 in NE 2.0 mph 4.0 mph 88% 0.00 in 0 W/m2
20:44 56.6 °F 53.1 °F 29.49 in NE 1.0 mph 2.0 mph 88% 0.00 in 0 W/m2
20:50 56.5 °F 53.0 °F 29.49 in ENE 1.0 mph 1.0 mph 88% 0.00 in 0 W/m2
20:56 56.5 °F 53.0 °F 29.50 in ENE 1.0 mph 3.0 mph 88% 0.00 in 0 W/m2
21:02 56.5 °F 53.0 °F 29.50 in ENE 2.0 mph 5.0 mph 88% 0.00 in 0 W/m2
21:08 56.5 °F 53.0 °F 29.50 in ENE 3.0 mph 5.0 mph 88% 0.00 in 0 W/m2
21:14 56.5 °F 53.0 °F 29.50 in NE 2.0 mph 6.0 mph 88% 0.00 in 0 W/m2
21:20 56.6 °F 53.1 °F 29.50 in ENE 3.0 mph 3.0 mph 88% 0.00 in 0 W/m2
21:26 56.6 °F 52.8 °F 29.50 in NE 2.0 mph 7.0 mph 87% 0.00 in 0 W/m2
21:32 56.6 °F 52.8 °F 29.50 in SE 3.0 mph 3.0 mph 87% 0.00 in 0 W/m2
21:38 56.6 °F 52.8 °F 29.50 in East 2.0 mph 3.0 mph 87% 0.00 in 0 W/m2
21:44 56.6 °F 52.8 °F 29.50 in North 2.0 mph 4.0 mph 87% 0.00 in 0 W/m2
21:50 56.6 °F 52.8 °F 29.50 in ENE 3.0 mph 3.0 mph 87% 0.00 in 0 W/m2
21:56 56.5 °F 52.7 °F 29.50 in ENE 2.0 mph 3.0 mph 87% 0.00 in 0 W/m2
22:02 56.5 °F 52.7 °F 29.50 in East 2.0 mph 2.0 mph 87% 0.00 in 0 W/m2
22:08 56.5 °F 52.7 °F 29.50 in ENE 2.0 mph 4.0 mph 87% 0.00 in 0 W/m2
22:16 56.6 °F 52.8 °F 29.50 in ENE 4.0 mph 9.0 mph 87% 0.00 in 0 W/m2
22:22 56.5 °F 52.7 °F 29.49 in East 4.0 mph 4.0 mph 87% 0.00 in 0 W/m2
22:28 56.5 °F 52.7 °F 29.49 in ENE 3.0 mph 9.0 mph 87% 0.00 in 0 W/m2
22:34 56.5 °F 52.7 °F 29.49 in ENE 3.0 mph 3.0 mph 87% 0.00 in 0 W/m2
22:40 56.5 °F 52.7 °F 29.49 in ENE 3.0 mph 4.0 mph 87% 0.00 in 0 W/m2
22:46 56.5 °F 52.7 °F 29.50 in ENE 4.0 mph 4.0 mph 87% 0.00 in 0 W/m2
22:52 56.4 °F 52.9 °F 29.50 in NE 3.0 mph 4.0 mph 88% 0.00 in 0 W/m2
22:58 56.4 °F 52.6 °F 29.50 in NNE 4.0 mph 4.0 mph 87% 0.00 in 0 W/m2
23:04 56.5 °F 52.7 °F 29.50 in ESE 4.0 mph 5.0 mph 87% 0.00 in 0 W/m2
23:10 56.5 °F 52.7 °F 29.50 in East 4.0 mph 4.0 mph 87% 0.00 in 0 W/m2
23:16 56.4 °F 52.6 °F 29.50 in ENE 4.0 mph 10.0 mph 87% 0.00 in 0 W/m2
23:22 56.4 °F 52.6 °F 29.50 in SSE 3.0 mph 4.0 mph 87% 0.00 in 0 W/m2
23:28 56.4 °F 52.6 °F 29.50 in East 3.0 mph 6.0 mph 87% 0.00 in 0 W/m2
23:34 56.3 °F 52.5 °F 29.50 in ENE 3.0 mph 6.0 mph 87% 0.00 in 0 W/m2
23:40 56.2 °F 52.4 °F 29.50 in ESE 3.0 mph 3.0 mph 87% 0.00 in 0 W/m2
23:46 56.2 °F 52.4 °F 29.51 in SSE 3.0 mph 5.0 mph 87% 0.00 in 0 W/m2
23:52 56.2 °F 52.7 °F 29.51 in NE 3.0 mph 3.0 mph 88% 0.00 in 0 W/m2
23:58 56.1 °F 52.3 °F 29.50 in ENE 2.0 mph 4.0 mph 87% 0.00 in 0 W/m2
Country Meadow, Clay, NY, USA
Compliments of Weather Underground - 2 mb